sensor_id;sensor_type;location;lat;lon;timestamp;pressure;altitude;pressure_sealevel;temperature;humidity
56074;BME280;41950;55.840;37.442;2023-02-12T00:00:40;98245.25;;;-0.82;88.64
56074;BME280;41950;55.840;37.442;2023-02-12T00:03:06;98247.75;;;-0.90;89.21
56074;BME280;41950;55.840;37.442;2023-02-12T00:05:32;98263.00;;;-0.98;88.34
56074;BME280;41950;55.840;37.442;2023-02-12T00:07:58;98264.56;;;-1.16;90.07
56074;BME280;41950;55.840;37.442;2023-02-12T00:10:23;98259.47;;;-1.16;89.13
56074;BME280;41950;55.840;37.442;2023-02-12T00:12:51;98280.66;;;-1.22;87.86
56074;BME280;41950;55.840;37.442;2023-02-12T00:15:17;98285.69;;;-1.34;89.37
56074;BME280;41950;55.840;37.442;2023-02-12T00:17:43;98284.72;;;-1.47;89.07
56074;BME280;41950;55.840;37.442;2023-02-12T00:20:09;98298.19;;;-1.59;89.94
56074;BME280;41950;55.840;37.442;2023-02-12T00:22:35;98303.19;;;-1.66;90.53
56074;BME280;41950;55.840;37.442;2023-02-12T00:25:01;98313.34;;;-1.68;91.37
56074;BME280;41950;55.840;37.442;2023-02-12T00:27:27;98293.69;;;-1.89;90.66
56074;BME280;41950;55.840;37.442;2023-02-12T00:29:53;98271.44;;;-2.09;90.63
56074;BME280;41950;55.840;37.442;2023-02-12T00:32:18;98305.38;;;-2.04;89.24
56074;BME280;41950;55.840;37.442;2023-02-12T00:34:45;98321.56;;;-1.95;90.00
56074;BME280;41950;55.840;37.442;2023-02-12T00:37:11;98274.53;;;-2.35;89.84
56074;BME280;41950;55.840;37.442;2023-02-12T00:39:37;98351.19;;;-2.00;91.18
56074;BME280;41950;55.840;37.442;2023-02-12T00:42:03;98351.91;;;-2.11;91.40
56074;BME280;41950;55.840;37.442;2023-02-12T00:44:29;98363.75;;;-2.13;91.24
56074;BME280;41950;55.840;37.442;2023-02-12T00:46:55;98389.19;;;-2.10;92.07
56074;BME280;41950;55.840;37.442;2023-02-12T00:49:22;98379.84;;;-2.13;90.82
56074;BME280;41950;55.840;37.442;2023-02-12T00:51:48;98337.03;;;-2.49;90.88
56074;BME280;41950;55.840;37.442;2023-02-12T00:54:13;98386.47;;;-2.24;88.88
56074;BME280;41950;55.840;37.442;2023-02-12T00:56:39;98398.31;;;-2.25;90.73
56074;BME280;41950;55.840;37.442;2023-02-12T00:59:06;98404.22;;;-2.27;89.64
56074;BME280;41950;55.840;37.442;2023-02-12T01:01:32;98399.81;;;-2.40;90.04
56074;BME280;41950;55.840;37.442;2023-02-12T01:03:57;98409.16;;;-2.39;89.46
56074;BME280;41950;55.840;37.442;2023-02-12T01:06:23;98422.78;;;-2.33;89.84
56074;BME280;41950;55.840;37.442;2023-02-12T01:08:50;98430.44;;;-2.30;89.78
56074;BME280;41950;55.840;37.442;2023-02-12T01:11:15;98421.91;;;-2.35;90.36
56074;BME280;41950;55.840;37.442;2023-02-12T01:13:41;98425.16;;;-2.45;89.22
56074;BME280;41950;55.840;37.442;2023-02-12T01:16:12;98471.03;;;-2.34;88.67
56074;BME280;41950;55.840;37.442;2023-02-12T01:18:38;98475.97;;;-2.46;88.10
56074;BME280;41950;55.840;37.442;2023-02-12T01:21:27;98474.19;;;-2.51;89.17
56074;BME280;41950;55.840;37.442;2023-02-12T01:23:53;98416.84;;;-2.92;87.96
56074;BME280;41950;55.840;37.442;2023-02-12T01:26:20;98445.81;;;-2.78;88.91
56074;BME280;41950;55.840;37.442;2023-02-12T01:28:55;98506.31;;;-2.54;88.55
56074;BME280;41950;55.840;37.442;2023-02-12T01:31:24;98496.94;;;-2.58;89.31
56074;BME280;41950;55.840;37.442;2023-02-12T01:33:53;98518.97;;;-2.57;89.08
56074;BME280;41950;55.840;37.442;2023-02-12T01:36:20;98524.06;;;-2.56;89.18
56074;BME280;41950;55.840;37.442;2023-02-12T01:38:47;98506.09;;;-2.68;88.83
56074;BME280;41950;55.840;37.442;2023-02-12T01:41:22;98526.56;;;-2.57;89.42
56074;BME280;41950;55.840;37.442;2023-02-12T01:44:11;98540.09;;;-2.58;88.32
56074;BME280;41950;55.840;37.442;2023-02-12T01:46:38;98564.66;;;-2.59;88.69
56074;BME280;41950;55.840;37.442;2023-02-12T01:49:07;98551.06;;;-2.61;88.45
56074;BME280;41950;55.840;37.442;2023-02-12T01:51:35;98564.56;;;-2.63;87.29
56074;BME280;41950;55.840;37.442;2023-02-12T01:54:04;98568.72;;;-2.68;87.92
56074;BME280;41950;55.840;37.442;2023-02-12T01:56:31;98574.47;;;-2.77;87.84
56074;BME280;41950;55.840;37.442;2023-02-12T01:58:57;98588.13;;;-2.73;88.65
56074;BME280;41950;55.840;37.442;2023-02-12T02:01:26;98584.59;;;-2.78;89.34
56074;BME280;41950;55.840;37.442;2023-02-12T02:04:01;98610.28;;;-2.65;90.42
56074;BME280;41950;55.840;37.442;2023-02-12T02:06:41;98594.16;;;-2.67;88.96
56074;BME280;41950;55.840;37.442;2023-02-12T02:09:10;98616.91;;;-2.73;88.24
56074;BME280;41950;55.840;37.442;2023-02-12T02:11:36;98620.25;;;-2.74;88.44
56074;BME280;41950;55.840;37.442;2023-02-12T02:14:20;98619.34;;;-2.77;87.82
56074;BME280;41950;55.840;37.442;2023-02-12T02:25:56;98652.25;;;-2.82;87.58
56074;BME280;41950;55.840;37.442;2023-02-12T02:28:51;98659.00;;;-2.84;86.46
56074;BME280;41950;55.840;37.442;2023-02-12T02:31:40;98676.78;;;-2.83;86.69
56074;BME280;41950;55.840;37.442;2023-02-12T02:34:32;98681.88;;;-2.83;87.24
56074;BME280;41950;55.840;37.442;2023-02-12T02:42:35;98701.22;;;-2.89;88.73
56074;BME280;41950;55.840;37.442;2023-02-12T02:45:19;98716.47;;;-2.88;89.50
56074;BME280;41950;55.840;37.442;2023-02-12T02:47:54;98695.97;;;-2.98;88.84
56074;BME280;41950;55.840;37.442;2023-02-12T02:50:23;98718.13;;;-2.90;89.85
56074;BME280;41950;55.840;37.442;2023-02-12T02:53:13;98729.16;;;-2.88;89.46
56074;BME280;41950;55.840;37.442;2023-02-12T02:55:44;98688.09;;;-3.09;89.71
56074;BME280;41950;55.840;37.442;2023-02-12T02:58:15;98741.97;;;-2.83;89.75
56074;BME280;41950;55.840;37.442;2023-02-12T03:00:47;98727.41;;;-2.92;88.43
56074;BME280;41950;55.840;37.442;2023-02-12T03:03:26;98747.06;;;-2.82;89.18
56074;BME280;41950;55.840;37.442;2023-02-12T03:05:58;98750.25;;;-2.92;88.22
56074;BME280;41950;55.840;37.442;2023-02-12T03:08:33;98777.44;;;-2.86;88.09
56074;BME280;41950;55.840;37.442;2023-02-12T03:11:13;98776.19;;;-3.03;87.34
56074;BME280;41950;55.840;37.442;2023-02-12T03:13:56;98768.38;;;-3.14;87.69
56074;BME280;41950;55.840;37.442;2023-02-12T03:16:27;98764.75;;;-3.25;88.25
56074;BME280;41950;55.840;37.442;2023-02-12T03:21:57;98806.59;;;-3.06;88.96
56074;BME280;41950;55.840;37.442;2023-02-12T03:24:56;98807.34;;;-3.11;88.74
56074;BME280;41950;55.840;37.442;2023-02-12T03:27:29;98813.09;;;-3.19;87.92
56074;BME280;41950;55.840;37.442;2023-02-12T03:29:57;98785.31;;;-3.49;86.89
56074;BME280;41950;55.840;37.442;2023-02-12T03:38:03;98845.16;;;-3.23;88.53
56074;BME280;41950;55.840;37.442;2023-02-12T03:40:34;98717.19;;;-4.05;87.49
56074;BME280;41950;55.840;37.442;2023-02-12T03:43:31;98852.75;;;-3.23;86.68
56074;BME280;41950;55.840;37.442;2023-02-12T03:46:19;98871.28;;;-3.27;85.56
56074;BME280;41950;55.840;37.442;2023-02-12T03:51:38;98858.28;;;-3.39;85.58
56074;BME280;41950;55.840;37.442;2023-02-12T03:54:06;98886.41;;;-3.30;84.18
56074;BME280;41950;55.840;37.442;2023-02-12T03:56:41;98889.00;;;-3.28;83.76
56074;BME280;41950;55.840;37.442;2023-02-12T03:59:09;98895.78;;;-3.27;84.91
56074;BME280;41950;55.840;37.442;2023-02-12T04:01:35;98893.91;;;-3.34;81.59
56074;BME280;41950;55.840;37.442;2023-02-12T04:04:04;98881.94;;;-3.40;83.29
56074;BME280;41950;55.840;37.442;2023-02-12T04:06:30;98904.97;;;-3.31;83.47
56074;BME280;41950;55.840;37.442;2023-02-12T04:08:58;98924.47;;;-3.30;82.91
56074;BME280;41950;55.840;37.442;2023-02-12T04:11:53;98906.66;;;-3.31;82.31
56074;BME280;41950;55.840;37.442;2023-02-12T04:17:43;98943.56;;;-3.44;82.71
56074;BME280;41950;55.840;37.442;2023-02-12T04:20:36;98898.63;;;-3.81;81.37
56074;BME280;41950;55.840;37.442;2023-02-12T04:23:25;98961.19;;;-3.49;82.17
56074;BME280;41950;55.840;37.442;2023-02-12T04:31:29;98973.72;;;-3.55;79.09
56074;BME280;41950;55.840;37.442;2023-02-12T04:34:17;98970.06;;;-3.64;79.43
56074;BME280;41950;55.840;37.442;2023-02-12T04:36:54;98958.88;;;-3.71;80.79
56074;BME280;41950;55.840;37.442;2023-02-12T04:39:24;98991.50;;;-3.53;81.41
56074;BME280;41950;55.840;37.442;2023-02-12T04:41:51;98983.75;;;-3.58;78.84
56074;BME280;41950;55.840;37.442;2023-02-12T04:44:21;98987.03;;;-3.62;80.17
56074;BME280;41950;55.840;37.442;2023-02-12T04:46:48;99002.34;;;-3.57;77.00
56074;BME280;41950;55.840;37.442;2023-02-12T04:49:15;99000.47;;;-3.64;81.30
56074;BME280;41950;55.840;37.442;2023-02-12T04:51:42;99022.00;;;-3.52;80.17
56074;BME280;41950;55.840;37.442;2023-02-12T04:54:07;99027.88;;;-3.53;79.45
56074;BME280;41950;55.840;37.442;2023-02-12T04:56:33;99035.50;;;-3.53;79.35
56074;BME280;41950;55.840;37.442;2023-02-12T04:58:59;99040.53;;;-3.54;79.88
56074;BME280;41950;55.840;37.442;2023-02-12T05:01:24;99036.34;;;-3.52;81.33
56074;BME280;41950;55.840;37.442;2023-02-12T05:03:50;99016.72;;;-3.58;81.63
56074;BME280;41950;55.840;37.442;2023-02-12T05:06:16;99044.00;;;-3.51;81.27
56074;BME280;41950;55.840;37.442;2023-02-12T05:08:42;99060.25;;;-3.44;80.96
56074;BME280;41950;55.840;37.442;2023-02-12T05:11:09;99062.75;;;-3.46;79.29
56074;BME280;41950;55.840;37.442;2023-02-12T05:13:35;99057.59;;;-3.49;81.71
56074;BME280;41950;55.840;37.442;2023-02-12T05:16:05;99081.41;;;-3.44;81.41
56074;BME280;41950;55.840;37.442;2023-02-12T05:18:32;99082.09;;;-3.49;81.05
56074;BME280;41950;55.840;37.442;2023-02-12T05:21:00;99098.03;;;-3.53;80.89
56074;BME280;41950;55.840;37.442;2023-02-12T05:23:31;99109.75;;;-3.57;79.95
56074;BME280;41950;55.840;37.442;2023-02-12T05:26:06;99122.28;;;-3.61;80.41
56074;BME280;41950;55.840;37.442;2023-02-12T05:28:32;99108.56;;;-3.68;80.45
56074;BME280;41950;55.840;37.442;2023-02-12T05:30:59;99109.44;;;-3.67;81.86
56074;BME280;41950;55.840;37.442;2023-02-12T05:33:26;99093.81;;;-3.81;81.69
56074;BME280;41950;55.840;37.442;2023-02-12T05:35:51;99118.59;;;-3.72;79.26
56074;BME280;41950;55.840;37.442;2023-02-12T05:38:17;99091.91;;;-3.88;81.05
56074;BME280;41950;55.840;37.442;2023-02-12T05:40:43;99143.09;;;-3.73;81.06
56074;BME280;41950;55.840;37.442;2023-02-12T05:43:09;99148.28;;;-3.68;81.30
56074;BME280;41950;55.840;37.442;2023-02-12T05:45:35;99144.81;;;-3.72;80.53
56074;BME280;41950;55.840;37.442;2023-02-12T05:48:02;99146.34;;;-3.77;79.48
56074;BME280;41950;55.840;37.442;2023-02-12T05:50:28;99123.00;;;-3.94;81.07
56074;BME280;41950;55.840;37.442;2023-02-12T05:52:54;99155.72;;;-3.75;79.76
56074;BME280;41950;55.840;37.442;2023-02-12T05:55:20;99140.16;;;-3.85;79.60
56074;BME280;41950;55.840;37.442;2023-02-12T05:57:45;99158.84;;;-3.83;78.30
56074;BME280;41950;55.840;37.442;2023-02-12T06:00:12;99174.81;;;-3.84;77.84
56074;BME280;41950;55.840;37.442;2023-02-12T06:02:38;99172.09;;;-3.90;78.94
56074;BME280;41950;55.840;37.442;2023-02-12T06:05:04;99181.44;;;-3.89;79.06
56074;BME280;41950;55.840;37.442;2023-02-12T06:07:30;99181.00;;;-4.03;76.33
56074;BME280;41950;55.840;37.442;2023-02-12T06:09:56;99200.72;;;-3.94;79.45
56074;BME280;41950;55.840;37.442;2023-02-12T06:12:21;99174.44;;;-3.96;79.64
56074;BME280;41950;55.840;37.442;2023-02-12T06:14:47;99213.66;;;-3.85;78.06
56074;BME280;41950;55.840;37.442;2023-02-12T06:17:14;99162.94;;;-4.12;78.04
56074;BME280;41950;55.840;37.442;2023-02-12T06:19:39;99183.34;;;-4.09;78.03
56074;BME280;41950;55.840;37.442;2023-02-12T06:22:05;99224.53;;;-3.89;78.15
56074;BME280;41950;55.840;37.442;2023-02-12T06:24:31;99207.06;;;-4.07;77.12
56074;BME280;41950;55.840;37.442;2023-02-12T06:26:56;99228.31;;;-4.03;78.02
56074;BME280;41950;55.840;37.442;2023-02-12T06:29:22;99255.75;;;-3.90;78.44
56074;BME280;41950;55.840;37.442;2023-02-12T06:31:48;99245.38;;;-3.98;77.60
56074;BME280;41950;55.840;37.442;2023-02-12T06:34:14;99266.72;;;-3.91;78.03
56074;BME280;41950;55.840;37.442;2023-02-12T06:36:44;99276.13;;;-3.87;78.20
56074;BME280;41950;55.840;37.442;2023-02-12T06:39:12;99261.75;;;-3.88;78.08
56074;BME280;41950;55.840;37.442;2023-02-12T06:41:38;99282.16;;;-3.84;78.93
56074;BME280;41950;55.840;37.442;2023-02-12T06:44:05;99290.00;;;-3.78;78.16
56074;BME280;41950;55.840;37.442;2023-02-12T06:46:31;99292.31;;;-3.84;77.49
56074;BME280;41950;55.840;37.442;2023-02-12T06:48:59;99299.66;;;-3.91;76.81
56074;BME280;41950;55.840;37.442;2023-02-12T06:51:26;99300.44;;;-3.94;77.76
56074;BME280;41950;55.840;37.442;2023-02-12T06:53:53;99301.69;;;-4.07;77.05
56074;BME280;41950;55.840;37.442;2023-02-12T06:56:20;99315.28;;;-4.05;76.85
56074;BME280;41950;55.840;37.442;2023-02-12T06:58:53;99324.75;;;-3.99;76.89
56074;BME280;41950;55.840;37.442;2023-02-12T07:01:22;99317.31;;;-3.94;74.94
56074;BME280;41950;55.840;37.442;2023-02-12T07:03:56;99320.59;;;-3.97;76.09
56074;BME280;41950;55.840;37.442;2023-02-12T07:06:24;99315.88;;;-3.86;76.67
56074;BME280;41950;55.840;37.442;2023-02-12T07:08:50;99340.75;;;-3.76;75.86
56074;BME280;41950;55.840;37.442;2023-02-12T07:11:16;99288.94;;;-4.10;74.86
56074;BME280;41950;55.840;37.442;2023-02-12T07:13:43;99346.22;;;-3.89;74.74
56074;BME280;41950;55.840;37.442;2023-02-12T07:16:14;99350.09;;;-3.99;74.47
56074;BME280;41950;55.840;37.442;2023-02-12T07:18:41;99346.50;;;-4.06;75.33
56074;BME280;41950;55.840;37.442;2023-02-12T07:21:08;99351.78;;;-3.99;75.90
56074;BME280;41950;55.840;37.442;2023-02-12T07:23:35;99364.81;;;-3.89;74.42
56074;BME280;41950;55.840;37.442;2023-02-12T07:26:06;99359.22;;;-3.80;74.55
56074;BME280;41950;55.840;37.442;2023-02-12T07:28:33;99369.66;;;-3.71;73.79
56074;BME280;41950;55.840;37.442;2023-02-12T07:31:25;99366.72;;;-3.83;71.51
56074;BME280;41950;55.840;37.442;2023-02-12T07:33:56;99368.47;;;-3.82;74.12
56074;BME280;41950;55.840;37.442;2023-02-12T07:36:23;99385.53;;;-3.77;74.01
56074;BME280;41950;55.840;37.442;2023-02-12T07:38:49;99341.38;;;-4.07;71.85
56074;BME280;41950;55.840;37.442;2023-02-12T07:41:18;99389.97;;;-3.95;72.59
56074;BME280;41950;55.840;37.442;2023-02-12T07:43:45;99396.50;;;-4.01;72.04
56074;BME280;41950;55.840;37.442;2023-02-12T07:46:22;99406.03;;;-3.94;73.68
56074;BME280;41950;55.840;37.442;2023-02-12T07:48:51;99412.97;;;-3.89;74.08
56074;BME280;41950;55.840;37.442;2023-02-12T07:51:17;99410.84;;;-3.78;74.45
56074;BME280;41950;55.840;37.442;2023-02-12T07:53:44;99404.97;;;-3.77;70.98
56074;BME280;41950;55.840;37.442;2023-02-12T07:56:21;99414.09;;;-3.82;70.83
56074;BME280;41950;55.840;37.442;2023-02-12T07:58:49;99427.50;;;-3.85;69.84
56074;BME280;41950;55.840;37.442;2023-02-12T08:01:17;99428.25;;;-3.87;73.70
56074;BME280;41950;55.840;37.442;2023-02-12T08:03:44;99389.91;;;-3.96;72.38
56074;BME280;41950;55.840;37.442;2023-02-12T08:06:13;99430.13;;;-3.83;72.61
56074;BME280;41950;55.840;37.442;2023-02-12T08:08:39;99424.59;;;-3.95;72.47
56074;BME280;41950;55.840;37.442;2023-02-12T08:11:09;99437.63;;;-3.85;70.67
56074;BME280;41950;55.840;37.442;2023-02-12T08:13:35;99463.00;;;-3.85;71.96
56074;BME280;41950;55.840;37.442;2023-02-12T08:16:07;99426.84;;;-4.03;70.74
56074;BME280;41950;55.840;37.442;2023-02-12T08:18:34;99455.13;;;-3.92;71.49
56074;BME280;41950;55.840;37.442;2023-02-12T08:21:01;99465.16;;;-3.95;70.63
56074;BME280;41950;55.840;37.442;2023-02-12T08:23:29;99464.50;;;-3.90;71.04
56074;BME280;41950;55.840;37.442;2023-02-12T08:26:07;99446.16;;;-4.07;70.31
56074;BME280;41950;55.840;37.442;2023-02-12T08:28:34;99468.91;;;-4.08;68.91
56074;BME280;41950;55.840;37.442;2023-02-12T08:31:04;99495.44;;;-3.98;69.45
56074;BME280;41950;55.840;37.442;2023-02-12T08:33:31;99500.53;;;-3.98;71.55
56074;BME280;41950;55.840;37.442;2023-02-12T08:36:10;99500.84;;;-3.89;70.40
56074;BME280;41950;55.840;37.442;2023-02-12T08:38:38;99458.19;;;-4.01;71.16
56074;BME280;41950;55.840;37.442;2023-02-12T08:41:12;99466.53;;;-3.81;70.66
56074;BME280;41950;55.840;37.442;2023-02-12T08:43:39;99500.13;;;-3.63;70.41
56074;BME280;41950;55.840;37.442;2023-02-12T08:46:10;99507.97;;;-3.57;69.95
56074;BME280;41950;55.840;37.442;2023-02-12T08:48:36;99496.47;;;-3.71;69.45
56074;BME280;41950;55.840;37.442;2023-02-12T08:51:04;99501.81;;;-3.63;70.25
56074;BME280;41950;55.840;37.442;2023-02-12T08:53:30;99496.47;;;-3.71;69.14
56074;BME280;41950;55.840;37.442;2023-02-12T08:55:56;99518.03;;;-3.58;67.22
56074;BME280;41950;55.840;37.442;2023-02-12T08:58:22;99481.16;;;-3.74;67.79
56074;BME280;41950;55.840;37.442;2023-02-12T09:00:47;99518.81;;;-3.61;68.02
56074;BME280;41950;55.840;37.442;2023-02-12T09:03:13;99527.94;;;-3.66;67.03
56074;BME280;41950;55.840;37.442;2023-02-12T09:05:40;99528.50;;;-3.73;68.27
56074;BME280;41950;55.840;37.442;2023-02-12T09:08:06;99542.69;;;-3.78;67.16
56074;BME280;41950;55.840;37.442;2023-02-12T09:10:33;99542.53;;;-3.83;65.78
56074;BME280;41950;55.840;37.442;2023-02-12T09:12:58;99523.38;;;-3.97;67.77
56074;BME280;41950;55.840;37.442;2023-02-12T09:15:24;99523.94;;;-3.83;68.80
56074;BME280;41950;55.840;37.442;2023-02-12T09:17:50;99531.75;;;-3.77;66.99
56074;BME280;41950;55.840;37.442;2023-02-12T09:20:16;99537.63;;;-3.56;65.67
56074;BME280;41950;55.840;37.442;2023-02-12T09:22:42;99549.59;;;-3.52;67.41
56074;BME280;41950;55.840;37.442;2023-02-12T09:25:07;99548.72;;;-3.52;69.71
56074;BME280;41950;55.840;37.442;2023-02-12T09:27:33;99556.72;;;-3.42;68.77
56074;BME280;41950;55.840;37.442;2023-02-12T09:29:58;99551.72;;;-3.16;69.08
56074;BME280;41950;55.840;37.442;2023-02-12T09:32:24;99548.56;;;-3.09;67.21
56074;BME280;41950;55.840;37.442;2023-02-12T09:34:50;99569.09;;;-3.03;67.77
56074;BME280;41950;55.840;37.442;2023-02-12T09:37:15;99537.34;;;-3.16;66.35
56074;BME280;41950;55.840;37.442;2023-02-12T09:39:41;99565.22;;;-3.17;65.71
56074;BME280;41950;55.840;37.442;2023-02-12T09:45:03;99561.22;;;-3.57;66.61
56074;BME280;41950;55.840;37.442;2023-02-12T09:47:35;99560.91;;;-3.66;66.42
56074;BME280;41950;55.840;37.442;2023-02-12T09:52:41;99552.72;;;-3.35;68.31
56074;BME280;41950;55.840;37.442;2023-02-12T09:55:13;99524.22;;;-3.52;66.98
56074;BME280;41950;55.840;37.442;2023-02-12T09:57:40;99501.75;;;-3.65;67.55
56074;BME280;41950;55.840;37.442;2023-02-12T10:00:12;99559.88;;;-3.01;67.74
56074;BME280;41950;55.840;37.442;2023-02-12T10:02:39;99571.91;;;-2.95;67.21
56074;BME280;41950;55.840;37.442;2023-02-12T10:05:24;99588.25;;;-2.87;68.26
56074;BME280;41950;55.840;37.442;2023-02-12T10:10:46;99578.81;;;-3.15;67.42
56074;BME280;41950;55.840;37.442;2023-02-12T10:16:43;99594.84;;;-3.16;65.28
56074;BME280;41950;55.840;37.442;2023-02-12T10:25:32;99613.22;;;-2.75;66.43
56074;BME280;41950;55.840;37.442;2023-02-12T10:28:08;99614.94;;;-2.74;65.03
56074;BME280;41950;55.840;37.442;2023-02-12T10:30:55;99598.72;;;-2.78;67.14
56074;BME280;41950;55.840;37.442;2023-02-12T10:33:44;99607.34;;;-2.49;64.38
56074;BME280;41950;55.840;37.442;2023-02-12T10:36:47;99607.94;;;-2.31;66.07
56074;BME280;41950;55.840;37.442;2023-02-12T10:39:19;99617.72;;;-2.43;64.80
56074;BME280;41950;55.840;37.442;2023-02-12T10:41:54;99628.13;;;-2.85;65.03
56074;BME280;41950;55.840;37.442;2023-02-12T10:44:20;99637.53;;;-3.06;65.77
56074;BME280;41950;55.840;37.442;2023-02-12T10:46:46;99631.31;;;-3.14;67.82
56074;BME280;41950;55.840;37.442;2023-02-12T10:49:14;99619.16;;;-3.23;66.86
56074;BME280;41950;55.840;37.442;2023-02-12T10:52:04;99640.75;;;-3.10;67.31
56074;BME280;41950;55.840;37.442;2023-02-12T10:59:40;99639.34;;;-3.02;68.46
56074;BME280;41950;55.840;37.442;2023-02-12T11:04:52;99649.25;;;-3.09;68.54
56074;BME280;41950;55.840;37.442;2023-02-12T11:07:19;99642.81;;;-3.24;69.31
56074;BME280;41950;55.840;37.442;2023-02-12T11:09:47;99652.75;;;-3.06;70.26
56074;BME280;41950;55.840;37.442;2023-02-12T11:14:54;99669.28;;;-2.71;68.98
56074;BME280;41950;55.840;37.442;2023-02-12T11:17:36;99662.22;;;-2.54;66.60
56074;BME280;41950;55.840;37.442;2023-02-12T11:22:52;99677.59;;;-2.00;66.76
56074;BME280;41950;55.840;37.442;2023-02-12T11:25:18;99682.53;;;-2.05;65.62
56074;BME280;41950;55.840;37.442;2023-02-12T11:27:44;99692.94;;;-1.97;65.82
56074;BME280;41950;55.840;37.442;2023-02-12T11:30:16;99688.78;;;-1.95;66.16
56074;BME280;41950;55.840;37.442;2023-02-12T11:32:42;99697.78;;;-1.79;66.38
56074;BME280;41950;55.840;37.442;2023-02-12T11:37:42;99696.75;;;-1.31;64.44
56074;BME280;41950;55.840;37.442;2023-02-12T11:40:20;99706.47;;;-1.17;62.50
56074;BME280;41950;55.840;37.442;2023-02-12T11:42:53;99718.66;;;-1.09;63.38
56074;BME280;41950;55.840;37.442;2023-02-12T11:45:30;99699.91;;;-1.38;61.32
56074;BME280;41950;55.840;37.442;2023-02-12T11:48:00;99696.16;;;-1.50;64.49
56074;BME280;41950;55.840;37.442;2023-02-12T11:50:36;99728.63;;;-0.86;61.04
56074;BME280;41950;55.840;37.442;2023-02-12T11:53:08;99726.94;;;-0.26;60.85
56074;BME280;41950;55.840;37.442;2023-02-12T11:55:36;99733.34;;;-0.40;60.56
56074;BME280;41950;55.840;37.442;2023-02-12T11:58:16;99748.72;;;-0.67;58.80
56074;BME280;41950;55.840;37.442;2023-02-12T12:00:52;99720.78;;;-1.76;60.72
56074;BME280;41950;55.840;37.442;2023-02-12T12:14:55;99770.13;;;-2.91;68.28
56074;BME280;41950;55.840;37.442;2023-02-12T12:20:44;99796.66;;;-3.05;67.12
56074;BME280;41950;55.840;37.442;2023-02-12T12:23:18;99794.34;;;-3.21;68.81
56074;BME280;41950;55.840;37.442;2023-02-12T12:25:50;99814.25;;;-3.30;69.69
56074;BME280;41950;55.840;37.442;2023-02-12T12:28:43;99801.91;;;-3.23;67.06
56074;BME280;41950;55.840;37.442;2023-02-12T12:31:31;99791.59;;;-3.48;67.66
56074;BME280;41950;55.840;37.442;2023-02-12T12:34:13;99830.38;;;-3.51;68.11
56074;BME280;41950;55.840;37.442;2023-02-12T12:56:44;99842.28;;;-2.41;65.69
56074;BME280;41950;55.840;37.442;2023-02-12T12:59:36;99828.78;;;-3.05;64.99
56074;BME280;41950;55.840;37.442;2023-02-12T13:10:54;99849.06;;;-3.49;71.53
56074;BME280;41950;55.840;37.442;2023-02-12T13:13:32;99866.25;;;-3.62;70.23
56074;BME280;41950;55.840;37.442;2023-02-12T13:21:39;99868.59;;;-3.86;72.29
56074;BME280;41950;55.840;37.442;2023-02-12T13:25:14;99882.88;;;-3.88;73.68
56074;BME280;41950;55.840;37.442;2023-02-12T13:27:17;99880.03;;;-3.96;73.07
56074;BME280;41950;55.840;37.442;2023-02-12T13:30:00;99851.88;;;-4.21;71.63
56074;BME280;41950;55.840;37.442;2023-02-12T13:32:43;99876.75;;;-4.13;69.73
56074;BME280;41950;55.840;37.442;2023-02-12T13:35:30;99887.53;;;-4.17;71.89
56074;BME280;41950;55.840;37.442;2023-02-12T13:37:58;99891.69;;;-4.19;72.23
56074;BME280;41950;55.840;37.442;2023-02-12T13:40:27;99882.75;;;-4.30;74.47
56074;BME280;41950;55.840;37.442;2023-02-12T13:53:45;99905.47;;;-4.31;74.90
56074;BME280;41950;55.840;37.442;2023-02-12T13:57:00;99904.34;;;-4.38;72.45
56074;BME280;41950;55.840;37.442;2023-02-12T13:59:01;99892.31;;;-4.42;76.02
56074;BME280;41950;55.840;37.442;2023-02-12T14:01:45;99900.03;;;-4.39;76.00
56074;BME280;41950;55.840;37.442;2023-02-12T14:09:33;99905.22;;;-4.38;76.42
56074;BME280;41950;55.840;37.442;2023-02-12T14:12:00;99909.16;;;-4.43;76.45
56074;BME280;41950;55.840;37.442;2023-02-12T14:14:37;99905.38;;;-4.52;75.62
56074;BME280;41950;55.840;37.442;2023-02-12T14:20:25;99931.56;;;-4.52;76.44
56074;BME280;41950;55.840;37.442;2023-02-12T14:25:58;99951.63;;;-4.56;77.15
56074;BME280;41950;55.840;37.442;2023-02-12T14:28:32;99945.47;;;-4.61;77.02
56074;BME280;41950;55.840;37.442;2023-02-12T14:31:29;99958.84;;;-4.64;77.54
56074;BME280;41950;55.840;37.442;2023-02-12T14:38:59;99956.88;;;-4.70;77.70
56074;BME280;41950;55.840;37.442;2023-02-12T14:41:37;99961.81;;;-4.73;77.14
56074;BME280;41950;55.840;37.442;2023-02-12T14:47:00;99971.13;;;-4.89;77.46
56074;BME280;41950;55.840;37.442;2023-02-12T14:49:50;99971.59;;;-4.97;77.33
56074;BME280;41950;55.840;37.442;2023-02-12T14:52:44;99991.59;;;-4.85;78.81
56074;BME280;41950;55.840;37.442;2023-02-12T14:55:19;99993.19;;;-4.87;79.10
56074;BME280;41950;55.840;37.442;2023-02-12T14:57:46;99979.13;;;-4.98;79.55
56074;BME280;41950;55.840;37.442;2023-02-12T15:02:44;100014.09;;;-4.91;79.08
56074;BME280;41950;55.840;37.442;2023-02-12T15:06:02;99989.09;;;-5.01;79.05
56074;BME280;41950;55.840;37.442;2023-02-12T15:08:21;100015.56;;;-4.94;79.16
56074;BME280;41950;55.840;37.442;2023-02-12T15:11:11;99995.59;;;-5.06;78.97
56074;BME280;41950;55.840;37.442;2023-02-12T15:13:51;100018.03;;;-4.96;79.26
56074;BME280;41950;55.840;37.442;2023-02-12T15:21:53;100016.88;;;-5.03;80.18
56074;BME280;41950;55.840;37.442;2023-02-12T15:24:24;100028.88;;;-4.99;79.59
56074;BME280;41950;55.840;37.442;2023-02-12T15:26:57;99996.09;;;-5.13;79.22
56074;BME280;41950;55.840;37.442;2023-02-12T15:29:44;100022.00;;;-5.01;78.83
56074;BME280;41950;55.840;37.442;2023-02-12T15:32:23;99999.28;;;-5.17;79.46
56074;BME280;41950;55.840;37.442;2023-02-12T15:34:50;100025.25;;;-5.04;80.14
56074;BME280;41950;55.840;37.442;2023-02-12T15:37:26;100014.84;;;-5.10;79.89
56074;BME280;41950;55.840;37.442;2023-02-12T15:39:56;100027.06;;;-5.01;79.75
56074;BME280;41950;55.840;37.442;2023-02-12T15:42:34;99967.50;;;-5.29;79.42
56074;BME280;41950;55.840;37.442;2023-02-12T15:47:39;100031.34;;;-5.00;79.34
56074;BME280;41950;55.840;37.442;2023-02-12T15:50:16;100028.81;;;-5.00;79.26